createdAt,value
2023-03-01T00:01:55.683Z,92.91
2023-03-01T00:04:36.255Z,93.36
2023-03-01T00:07:05.074Z,93.63
2023-03-01T00:09:32.508Z,92.66
2023-03-01T00:12:27.105Z,92.33
2023-03-01T00:14:54.554Z,91.32
2023-03-01T00:17:22.096Z,92.17
2023-03-01T00:19:49.516Z,91.88
2023-03-01T00:22:18.344Z,94.97
2023-03-01T00:27:34.558Z,93.81
2023-03-01T00:30:02.029Z,93.71
2023-03-01T00:32:30.350Z,92.03
2023-03-01T00:34:57.838Z,92.51
2023-03-01T00:37:26.626Z,92.23
2023-03-01T00:39:54.068Z,91.13
2023-03-01T00:42:23.049Z,90.73
2023-03-01T00:47:53.370Z,90.83
2023-03-01T00:50:21.385Z,91.38
2023-03-01T00:52:54.381Z,91.79
2023-03-01T00:55:22.923Z,91.88
2023-03-01T00:57:50.447Z,92.47
2023-03-01T01:00:18.702Z,92.80
2023-03-01T01:02:46.327Z,92.40
2023-03-01T01:05:14.064Z,91.92
2023-03-01T01:07:41.694Z,91.46
2023-03-01T01:10:17.913Z,90.56
2023-03-01T01:12:46.492Z,91.06
2023-03-01T01:15:17.349Z,91.48
2023-03-01T01:17:45.415Z,92.30
2023-03-01T01:20:13.705Z,93.47
2023-03-01T01:22:41.155Z,92.58
2023-03-01T01:25:11.462Z,92.40
2023-03-01T01:27:38.937Z,93.75
2023-03-01T01:30:07.545Z,94.92
2023-03-01T01:32:34.966Z,94.76
2023-03-01T01:35:02.603Z,95.35
2023-03-01T01:40:30.560Z,94.88
2023-03-01T01:45:57.433Z,93.84
2023-03-01T01:48:37.283Z,93.15
2023-03-01T01:51:05.238Z,92.54
2023-03-01T01:53:32.886Z,92.07
2023-03-01T01:56:03.420Z,91.33
2023-03-01T01:58:32.072Z,92.69
2023-03-01T02:01:01.821Z,93.50
2023-03-01T02:03:34.278Z,92.54
2023-03-01T02:06:06.240Z,91.37
2023-03-01T02:08:36.479Z,91.27
2023-03-01T02:11:05.503Z,91.22
2023-03-01T02:13:33.503Z,91.32
2023-03-01T02:16:04.219Z,90.50
2023-03-01T02:18:31.983Z,92.09
2023-03-01T02:21:10.548Z,92.67
2023-03-01T02:26:42.523Z,92.91
2023-03-01T02:29:11.400Z,91.16
2023-03-01T02:31:44.836Z,91.90
2023-03-01T02:37:21.383Z,91.83
2023-03-01T02:39:50.708Z,90.60
2023-03-01T02:42:25.062Z,90.38
2023-03-01T02:44:55.680Z,91.16
2023-03-01T02:47:23.199Z,90.79
2023-03-01T02:49:50.665Z,90.85
2023-03-01T02:52:29.194Z,90.97
2023-03-01T02:55:00.838Z,91.67
2023-03-01T02:57:29.851Z,90.48
2023-03-01T02:59:59.694Z,91.78
2023-03-01T03:02:37.641Z,91.35
2023-03-01T03:08:24.846Z,89.47
2023-03-01T03:10:53.793Z,89.49
2023-03-01T03:13:22.949Z,89.33
2023-03-01T03:15:52.468Z,89.70
2023-03-01T03:18:20.116Z,89.36
2023-03-01T03:20:47.728Z,89.61
2023-03-01T03:23:15.375Z,89.87
2023-03-01T03:25:42.787Z,91.96
2023-03-01T03:28:11.360Z,92.34
2023-03-01T03:30:41.126Z,91.69
2023-03-01T03:33:13.313Z,91.21
2023-03-01T03:35:42.703Z,90.87
2023-03-01T03:38:16.471Z,91.25
2023-03-01T03:43:43.560Z,93.05
2023-03-01T03:46:12.029Z,92.12
2023-03-01T03:48:43.308Z,90.77
2023-03-01T03:51:12.693Z,90.06
2023-03-01T03:53:40.295Z,91.81
2023-03-01T03:56:08.607Z,91.49
2023-03-01T03:58:36.190Z,90.42
2023-03-01T04:01:04.156Z,90.55
2023-03-01T04:03:34.150Z,90.23
2023-03-01T04:09:03.838Z,91.97
2023-03-01T04:11:31.289Z,94.33
2023-03-01T04:14:00.891Z,93.81
2023-03-01T04:16:28.579Z,93.09
2023-03-01T04:18:56.272Z,93.32
2023-03-01T04:21:24.163Z,92.57
2023-03-01T04:23:53.361Z,92.37
2023-03-01T04:26:22.423Z,91.57
2023-03-01T04:28:51.366Z,90.93
2023-03-01T04:31:22.106Z,91.40
2023-03-01T04:33:52.418Z,91.20
2023-03-01T04:39:13.120Z,92.45
2023-03-01T04:41:43.831Z,92.25
2023-03-01T04:44:11.362Z,91.91
2023-03-01T04:46:38.832Z,91.57
2023-03-01T04:49:06.668Z,92.19
2023-03-01T04:51:34.375Z,92.55
2023-03-01T04:54:02.160Z,92.36
2023-03-01T04:56:30.023Z,91.50
2023-03-01T04:58:59.019Z,91.76
2023-03-01T05:01:26.519Z,91.29
2023-03-01T05:03:54.400Z,90.79
2023-03-01T05:06:22.928Z,89.96
2023-03-01T05:08:50.402Z,89.59
2023-03-01T05:11:17.838Z,91.04
2023-03-01T05:13:45.309Z,91.66
2023-03-01T05:16:14.959Z,91.91
2023-03-01T05:18:42.661Z,91.95
2023-03-01T05:21:11.701Z,91.65
2023-03-01T05:26:29.638Z,90.66
2023-03-01T05:31:59.753Z,90.43
2023-03-01T05:34:28.649Z,90.04
2023-03-01T05:36:56.422Z,90.83
2023-03-01T05:42:26.620Z,91.62
2023-03-01T05:44:54.094Z,92.12
2023-03-01T05:47:22.871Z,90.64
2023-03-01T05:49:51.214Z,91.00
2023-03-01T05:52:18.639Z,90.58
2023-03-01T05:54:47.024Z,90.07
2023-03-01T05:57:14.526Z,89.58
2023-03-01T05:59:41.934Z,89.01
2023-03-01T06:02:09.363Z,89.27
2023-03-01T06:04:38.212Z,89.41
2023-03-01T06:07:05.708Z,91.83
2023-03-01T06:09:33.266Z,92.95
2023-03-01T06:12:00.787Z,93.23
2023-03-01T06:14:28.231Z,92.67
2023-03-01T06:19:55.930Z,92.27
2023-03-01T06:22:23.388Z,92.00
2023-03-01T06:24:50.917Z,91.65
2023-03-01T06:27:18.358Z,91.31
2023-03-01T06:29:45.804Z,90.57
2023-03-01T06:32:13.283Z,91.33
2023-03-01T06:34:40.766Z,91.19
2023-03-01T06:37:09.744Z,92.12
2023-03-01T06:39:37.423Z,92.49
2023-03-01T06:42:30.009Z,91.72
2023-03-01T06:44:57.532Z,93.15
2023-03-01T06:50:13.706Z,88.92
2023-03-01T06:52:42.573Z,86.06
2023-03-01T06:55:10.506Z,85.12
2023-03-01T06:57:38.013Z,83.12
2023-03-01T07:00:06.900Z,82.19
2023-03-01T07:05:22.765Z,78.08
2023-03-01T07:07:51.534Z,78.84
2023-03-01T07:10:19.243Z,77.16
2023-03-01T07:12:47.316Z,77.38
2023-03-01T07:15:15.866Z,77.89
2023-03-01T07:17:45.326Z,75.91
2023-03-01T07:20:13.762Z,75.53
2023-03-01T07:22:42.181Z,74.06
2023-03-01T07:25:11.637Z,72.58
2023-03-01T07:27:39.088Z,70.91
2023-03-01T07:30:08.029Z,70.50
2023-03-01T07:32:36.402Z,66.54
2023-03-01T07:35:03.977Z,69.32
2023-03-01T07:37:31.454Z,68.53
2023-03-01T07:43:11.847Z,66.63
2023-03-01T07:45:39.313Z,65.40
2023-03-01T07:48:06.962Z,65.81
2023-03-01T07:50:34.605Z,64.67
2023-03-01T07:53:02.047Z,63.05
2023-03-01T07:58:33.334Z,58.06
2023-03-01T08:01:03.222Z,61.55
2023-03-01T08:03:30.794Z,60.95
2023-03-01T08:06:00.143Z,62.35
2023-03-01T08:08:27.687Z,63.05
2023-03-01T08:13:51.898Z,65.47
2023-03-01T08:16:21.751Z,66.05
2023-03-01T08:18:51.941Z,66.97
2023-03-01T08:21:19.822Z,67.82
2023-03-01T08:23:47.607Z,68.11
2023-03-01T08:26:16.796Z,69.46
2023-03-01T08:31:36.274Z,72.68
2023-03-01T08:34:06.100Z,70.64
2023-03-01T08:39:32.803Z,72.76
2023-03-01T08:42:00.231Z,71.41
2023-03-01T08:44:27.963Z,72.08
2023-03-01T08:46:56.792Z,71.91
2023-03-01T08:52:23.315Z,69.77
2023-03-01T08:54:50.879Z,70.34
2023-03-01T08:57:18.308Z,69.05
2023-03-01T08:59:45.905Z,68.29
2023-03-01T09:02:16.811Z,67.06
2023-03-01T09:04:45.092Z,67.21
2023-03-01T09:07:12.876Z,65.83
2023-03-01T09:09:40.344Z,64.09
2023-03-01T09:12:08.093Z,62.83
2023-03-01T09:17:32.419Z,60.88
2023-03-01T09:22:57.551Z,62.26
2023-03-01T09:25:25.143Z,61.32
2023-03-01T09:27:52.937Z,64.84
2023-03-01T09:30:20.634Z,60.71
2023-03-01T09:33:12.240Z,62.70
2023-03-01T09:35:46.794Z,64.19
2023-03-01T09:38:14.737Z,61.77
2023-03-01T09:40:46.455Z,58.95
2023-03-01T09:46:27.559Z,59.78
2023-03-01T09:48:58.225Z,61.64
2023-03-01T09:51:29.639Z,61.50
2023-03-01T09:57:07.476Z,60.45
2023-03-01T09:59:42.686Z,61.23
2023-03-01T10:02:23.307Z,61.10
2023-03-01T10:08:08.466Z,61.35
2023-03-01T10:10:39.189Z,61.82
2023-03-01T10:13:15.187Z,60.51
2023-03-01T10:15:45.408Z,59.23
2023-03-01T10:18:14.925Z,60.85
2023-03-01T10:20:46.684Z,60.71
2023-03-01T10:26:17.641Z,60.65
2023-03-01T10:28:51.779Z,59.32
2023-03-01T10:31:23.139Z,57.95
2023-03-01T10:34:04.321Z,56.23
2023-03-01T10:36:34.729Z,56.54
2023-03-01T10:42:07.466Z,57.21
2023-03-01T10:44:41.895Z,56.73
2023-03-01T10:47:15.932Z,57.82
2023-03-01T10:50:00.852Z,55.71
2023-03-01T10:52:32.268Z,57.99
2023-03-01T10:55:01.675Z,55.47
2023-03-01T10:57:41.277Z,55.36
2023-03-01T11:00:13.610Z,52.51
2023-03-01T11:02:41.355Z,53.72
2023-03-01T11:05:20.348Z,53.17
2023-03-01T11:07:52.136Z,53.94
2023-03-01T11:10:21.828Z,52.39
2023-03-01T11:12:51.039Z,53.56
2023-03-01T11:15:27.646Z,52.94
2023-03-01T11:18:05.725Z,53.96
2023-03-01T11:20:38.023Z,53.84
2023-03-01T11:23:08.436Z,51.65
2023-03-01T11:25:38.879Z,53.70
2023-03-01T11:28:10.138Z,54.54
2023-03-01T11:30:41.152Z,53.90
2023-03-01T11:33:17.891Z,55.38
2023-03-01T11:35:50.219Z,51.73
2023-03-01T11:38:22.201Z,50.94
2023-03-01T11:40:56.014Z,54.04
2023-03-01T11:43:30.213Z,53.37
2023-03-01T11:46:15.822Z,53.90
2023-03-01T11:48:53.710Z,53.41
2023-03-01T11:51:26.832Z,52.36
2023-03-01T11:54:16.478Z,53.17
2023-03-01T11:56:47.834Z,54.56
2023-03-01T11:59:38.430Z,52.49
2023-03-01T12:02:35.169Z,52.94
2023-03-01T12:05:28.291Z,50.89
2023-03-01T12:07:58.868Z,51.65
2023-03-01T12:10:29.172Z,51.24
2023-03-01T12:13:07.993Z,49.51
2023-03-01T12:15:42.582Z,50.14
2023-03-01T12:21:21.623Z,48.99
2023-03-01T12:24:24.513Z,48.91
2023-03-01T12:26:59.977Z,51.21
2023-03-01T12:29:28.378Z,51.65
2023-03-01T12:31:57.616Z,51.87
2023-03-01T12:34:45.590Z,51.05
2023-03-01T12:40:18.304Z,49.50
2023-03-01T12:42:52.832Z,49.70
2023-03-01T12:45:34.672Z,49.49
2023-03-01T12:48:14.973Z,49.10
2023-03-01T12:50:47.700Z,47.09
2023-03-01T12:53:25.398Z,47.69
2023-03-01T12:55:54.794Z,47.50
2023-03-01T12:58:29.946Z,49.23
2023-03-01T13:01:17.134Z,46.84
2023-03-01T13:04:00.789Z,46.17
2023-03-01T13:06:43.890Z,47.68
2023-03-01T13:09:20.483Z,47.68
2023-03-01T13:11:48.000Z,46.54
2023-03-01T13:14:38.034Z,45.32
2023-03-01T13:17:05.515Z,45.70
2023-03-01T13:19:36.061Z,44.42
2023-03-01T13:22:28.968Z,43.89
2023-03-01T13:27:39.023Z,43.66
2023-03-01T13:33:37.339Z,44.20
2023-03-01T13:36:07.964Z,43.10
2023-03-01T13:38:47.676Z,42.51
2023-03-01T13:41:15.961Z,42.20
2023-03-01T13:43:44.839Z,39.89
2023-03-01T13:46:17.569Z,43.72
2023-03-01T13:51:48.691Z,44.06
2023-03-01T13:54:19.971Z,43.69
2023-03-01T13:56:47.479Z,41.21
2023-03-01T13:59:15.971Z,42.30
2023-03-01T14:01:43.926Z,41.87
2023-03-01T14:04:22.530Z,43.31
2023-03-01T14:06:49.974Z,42.23
2023-03-01T14:09:20.659Z,40.79
2023-03-01T14:14:46.629Z,38.50
2023-03-01T14:17:46.055Z,41.85
2023-03-01T14:20:18.623Z,41.41
2023-03-01T15:08:39.239Z,42.44
2023-03-01T15:11:17.869Z,41.67
2023-03-01T15:13:47.327Z,43.16
2023-03-01T15:16:16.086Z,44.50
2023-03-01T15:18:47.302Z,44.26
2023-03-01T15:21:19.732Z,45.45
2023-03-01T15:23:54.357Z,46.16
2023-03-01T15:26:27.666Z,46.53
2023-03-01T15:28:58.936Z,46.61
2023-03-01T15:34:26.078Z,48.74
2023-03-01T15:36:54.843Z,49.01
2023-03-01T15:39:39.299Z,49.32
2023-03-01T15:42:09.206Z,48.78
2023-03-01T15:44:43.653Z,49.52
2023-03-01T15:47:25.894Z,49.46
2023-03-01T15:49:55.831Z,49.69
2023-03-01T15:52:29.729Z,49.45
2023-03-01T15:57:47.761Z,50.48
2023-03-01T16:00:16.017Z,50.54
2023-03-01T16:02:44.553Z,50.63
2023-03-01T16:05:19.886Z,50.67
2023-03-01T16:10:52.306Z,50.99
2023-03-01T16:13:21.199Z,51.60
2023-03-01T16:15:48.948Z,51.57
2023-03-01T16:18:16.446Z,51.84
2023-03-01T16:23:38.694Z,53.70
2023-03-01T16:29:05.644Z,54.52
2023-03-01T16:31:34.250Z,53.80
2023-03-01T16:34:02.054Z,53.75
2023-03-01T16:36:29.948Z,53.89
2023-03-01T16:42:01.842Z,54.15
2023-03-01T16:44:31.249Z,54.98
2023-03-01T16:46:58.671Z,55.69
2023-03-01T16:49:26.158Z,56.35
2023-03-01T16:54:52.141Z,57.11
2023-03-01T16:59:54.923Z,56.72
2023-03-01T17:02:22.353Z,57.37
2023-03-01T17:07:48.371Z,58.68
2023-03-01T17:10:15.840Z,58.90
2023-03-01T17:12:43.282Z,58.40
2023-03-01T17:15:13.049Z,59.64
2023-03-01T17:20:39.122Z,64.88
2023-03-01T17:23:06.836Z,61.95
2023-03-01T17:25:34.260Z,61.74
2023-03-01T17:28:01.703Z,61.15
2023-03-01T17:33:24.077Z,60.59
2023-03-01T17:38:54.098Z,61.49
2023-03-01T17:41:23.591Z,60.35
2023-03-01T17:43:51.102Z,60.89
2023-03-01T17:46:19.056Z,61.73
2023-03-01T17:51:38.431Z,63.66
2023-03-01T17:54:06.438Z,63.08
2023-03-01T17:56:34.051Z,62.48
2023-03-01T17:59:01.580Z,63.15
2023-03-01T18:01:29.271Z,63.42
2023-03-01T18:03:56.870Z,62.47
2023-03-01T18:06:41.936Z,63.68
2023-03-01T18:09:11.740Z,63.70
2023-03-01T18:14:42.070Z,65.07
2023-03-01T18:17:11.872Z,66.41
2023-03-01T18:19:41.065Z,67.15
2023-03-01T18:22:09.363Z,68.52
2023-03-01T18:24:38.611Z,69.62
2023-03-01T18:27:06.644Z,69.87
2023-03-01T18:32:23.934Z,70.79
2023-03-01T18:34:51.601Z,71.41
2023-03-01T18:37:19.048Z,72.25
2023-03-01T18:39:51.770Z,73.75
2023-03-01T18:45:09.225Z,75.94
2023-03-01T18:47:36.673Z,75.30
2023-03-01T18:52:54.064Z,76.77
2023-03-01T18:55:22.837Z,76.83
2023-03-01T18:57:50.342Z,75.79
2023-03-01T19:00:19.243Z,74.71
2023-03-01T19:02:47.380Z,74.30
2023-03-01T19:05:16.470Z,75.72
2023-03-01T19:07:44.734Z,75.09
2023-03-01T19:10:12.817Z,75.12
2023-03-01T19:12:41.609Z,75.95
2023-03-01T19:15:09.502Z,76.58
2023-03-01T19:17:36.969Z,77.08
2023-03-01T19:20:05.041Z,77.26
2023-03-01T19:22:32.497Z,77.01
2023-03-01T19:27:59.408Z,78.85
2023-03-01T19:30:27.103Z,80.16
2023-03-01T19:32:54.654Z,79.93
2023-03-01T19:35:23.318Z,81.94
2023-03-01T19:40:53.351Z,82.64
2023-03-01T19:43:22.228Z,82.73
2023-03-01T19:45:51.916Z,82.57
2023-03-01T19:48:19.350Z,82.15
2023-03-01T19:50:46.837Z,82.32
2023-03-01T19:53:15.000Z,82.69
2023-03-01T19:58:47.537Z,82.70
2023-03-01T20:01:16.294Z,82.10
2023-03-01T20:03:43.836Z,85.89
2023-03-01T20:06:13.152Z,83.95
2023-03-01T20:08:40.598Z,83.27
2023-03-01T20:11:09.634Z,82.08
2023-03-01T20:16:41.756Z,81.82
2023-03-01T20:19:09.214Z,83.19
2023-03-01T20:21:36.841Z,83.91
2023-03-01T20:24:04.312Z,85.38
2023-03-01T20:26:33.126Z,84.94
2023-03-01T20:32:00.500Z,86.04
2023-03-01T20:34:28.049Z,85.80
2023-03-01T20:36:56.678Z,86.07
2023-03-01T20:39:24.136Z,87.78
2023-03-01T20:41:51.569Z,88.36
2023-03-01T20:44:19.118Z,88.52
2023-03-01T20:46:46.619Z,86.63
2023-03-01T20:49:15.486Z,86.46
2023-03-01T20:51:44.181Z,86.42
2023-03-01T20:54:11.818Z,85.98
2023-03-01T20:59:30.097Z,86.31
2023-03-01T21:01:57.511Z,87.32
2023-03-01T21:04:27.990Z,86.44
2023-03-01T21:06:56.827Z,84.96
2023-03-01T21:12:15.497Z,86.84
2023-03-01T21:14:47.116Z,90.81
2023-03-01T21:17:15.759Z,92.41
2023-03-01T21:22:34.800Z,92.67
2023-03-01T21:28:00.058Z,90.08
2023-03-01T21:30:27.524Z,89.28
2023-03-01T21:32:55.130Z,90.27
2023-03-01T21:35:22.651Z,89.55
2023-03-01T21:37:51.515Z,88.76
2023-03-01T21:40:19.203Z,88.75
2023-03-01T21:42:48.647Z,88.79
2023-03-01T21:45:16.303Z,89.54
2023-03-01T21:47:43.749Z,91.43
2023-03-01T21:50:12.361Z,90.56
2023-03-01T21:55:39.389Z,89.64
2023-03-01T21:58:06.929Z,88.96
2023-03-01T22:03:32.022Z,90.86
2023-03-01T22:06:01.168Z,89.83
2023-03-01T22:08:29.373Z,91.33
2023-03-01T22:10:58.326Z,91.11
2023-03-01T22:13:25.762Z,90.30
2023-03-01T22:15:53.175Z,89.20
2023-03-01T22:18:20.616Z,91.47
2023-03-01T22:20:48.070Z,90.74
2023-03-01T22:23:15.565Z,91.01
2023-03-01T22:28:21.433Z,92.16
2023-03-01T22:33:51.805Z,91.84
2023-03-01T22:36:19.257Z,90.89
2023-03-01T22:38:47.047Z,92.64
2023-03-01T22:41:14.751Z,91.81
2023-03-01T22:46:32.999Z,89.65
2023-03-01T22:49:00.657Z,91.02
2023-03-01T22:51:29.836Z,90.41
2023-03-01T22:53:57.871Z,89.15
2023-03-01T22:59:15.132Z,90.27
2023-03-01T23:01:47.305Z,91.52
2023-03-01T23:04:15.225Z,91.54
2023-03-01T23:06:51.577Z,90.96
2023-03-01T23:09:20.009Z,89.62
2023-03-01T23:11:47.557Z,88.89
2023-03-01T23:14:16.071Z,88.63
2023-03-01T23:16:45.138Z,88.12
2023-03-01T23:22:11.132Z,88.44
2023-03-01T23:24:38.792Z,88.87
2023-03-01T23:27:06.698Z,90.09
2023-03-01T23:29:34.146Z,89.71
2023-03-01T23:32:03.277Z,90.01
2023-03-01T23:34:30.871Z,89.21
2023-03-01T23:36:58.508Z,89.30
2023-03-01T23:39:26.087Z,89.22
2023-03-01T23:41:53.984Z,88.76
2023-03-01T23:44:22.271Z,88.59
2023-03-01T23:46:50.863Z,88.06
2023-03-01T23:49:21.674Z,88.49
2023-03-01T23:51:49.661Z,88.30
2023-03-01T23:54:18.896Z,88.56
2023-03-01T23:56:47.077Z,91.54
2023-03-01T23:59:16.744Z,91.55
